createdAt,value
2022-10-18T00:00:14.776Z,99.87
2022-10-18T00:02:41.504Z,99.85
2022-10-18T00:05:08.640Z,99.89
2022-10-18T00:07:36.313Z,100.27
2022-10-18T00:10:04.561Z,100.00
2022-10-18T00:12:34.735Z,99.88
2022-10-18T00:15:02.292Z,99.90
2022-10-18T00:17:29.279Z,99.95
2022-10-18T00:19:56.512Z,99.76
2022-10-18T00:22:23.288Z,99.61
2022-10-18T00:24:50.143Z,99.92
2022-10-18T00:27:18.092Z,100.29
2022-10-18T00:29:44.816Z,98.84
2022-10-18T00:32:14.448Z,98.56
2022-10-18T00:34:41.346Z,98.43
2022-10-18T00:37:07.999Z,98.67
2022-10-18T00:39:35.156Z,98.15
2022-10-18T00:42:03.562Z,97.85
2022-10-18T00:44:30.246Z,97.60
2022-10-18T00:47:04.911Z,97.02
2022-10-18T00:49:36.402Z,96.69
2022-10-18T00:52:08.250Z,96.26
2022-10-18T00:54:38.159Z,96.55
2022-10-18T00:57:06.191Z,96.59
2022-10-18T00:59:33.202Z,96.73
2022-10-18T01:02:00.711Z,96.42
2022-10-18T01:04:27.516Z,96.52
2022-10-18T01:07:09.487Z,96.91
2022-10-18T01:09:53.934Z,97.00
2022-10-18T01:12:24.548Z,97.68
2022-10-18T01:15:05.961Z,97.90
2022-10-18T01:17:46.748Z,97.68
2022-10-18T01:20:28.714Z,97.95
2022-10-18T01:23:39.188Z,98.34
2022-10-18T01:26:36.893Z,98.19
2022-10-18T01:29:09.910Z,98.15
2022-10-18T01:32:04.021Z,98.47
2022-10-18T01:34:36.050Z,98.51
2022-10-18T01:37:08.108Z,98.40
2022-10-18T01:39:40.032Z,98.41
2022-10-18T01:42:10.673Z,98.81
2022-10-18T01:44:39.004Z,98.49
2022-10-18T01:47:07.788Z,98.50
2022-10-18T01:49:35.837Z,98.79
2022-10-18T01:52:02.829Z,98.87
2022-10-18T01:54:39.161Z,98.84
2022-10-18T01:57:09.337Z,98.93
2022-10-18T01:59:54.973Z,98.84
2022-10-18T02:02:43.354Z,99.00
2022-10-18T02:05:44.763Z,98.85
2022-10-18T02:08:23.988Z,98.66
2022-10-18T02:11:02.886Z,98.84
2022-10-18T02:13:35.365Z,99.35
2022-10-18T02:16:08.228Z,99.07
2022-10-18T02:18:39.758Z,99.12
2022-10-18T02:21:08.102Z,99.35
2022-10-18T02:23:35.727Z,99.45
2022-10-18T02:26:02.526Z,99.44
2022-10-18T02:28:29.727Z,99.16
2022-10-18T02:31:13.660Z,99.36
2022-10-18T02:33:51.702Z,99.91
2022-10-18T02:36:24.556Z,99.93
2022-10-18T02:38:56.211Z,100.12
2022-10-18T02:41:28.016Z,100.16
2022-10-18T02:43:54.933Z,100.23
2022-10-18T02:46:21.647Z,100.00
2022-10-18T02:48:48.618Z,100.32
2022-10-18T02:51:15.405Z,100.31
2022-10-18T02:53:42.175Z,100.66
2022-10-18T02:56:09.217Z,100.41
2022-10-18T02:58:35.871Z,100.38
2022-10-18T03:01:02.613Z,100.48
2022-10-18T03:03:29.233Z,100.67
2022-10-18T03:05:56.307Z,100.88
2022-10-18T03:08:23.059Z,100.83
2022-10-18T03:10:49.954Z,100.75
2022-10-18T03:13:17.014Z,100.74
2022-10-18T03:15:44.125Z,100.29
2022-10-18T03:18:10.827Z,100.85
2022-10-18T03:20:37.716Z,100.70
2022-10-18T03:23:04.541Z,100.64
2022-10-18T03:25:31.232Z,100.24
2022-10-18T03:27:57.950Z,100.74
2022-10-18T03:30:24.870Z,100.74
2022-10-18T03:32:51.785Z,100.49
2022-10-18T03:35:18.429Z,100.82
2022-10-18T03:37:45.136Z,100.64
2022-10-18T03:40:11.827Z,100.56
2022-10-18T03:42:38.487Z,100.44
2022-10-18T03:45:05.916Z,100.58
2022-10-18T03:47:32.649Z,100.61
2022-10-18T03:49:59.248Z,100.90
2022-10-18T03:52:26.091Z,101.23
2022-10-18T03:54:52.956Z,101.22
2022-10-18T03:57:19.618Z,101.25
2022-10-18T03:59:48.662Z,101.44
2022-10-18T04:02:15.363Z,101.13
2022-10-18T04:04:42.024Z,101.34
2022-10-18T04:07:08.731Z,101.51
2022-10-18T04:09:35.810Z,101.57
2022-10-18T04:12:02.587Z,101.95
2022-10-18T04:14:29.281Z,101.97
2022-10-18T04:16:55.992Z,101.73
2022-10-18T04:19:22.948Z,101.95
2022-10-18T04:21:49.567Z,101.94
2022-10-18T04:24:19.571Z,102.15
2022-10-18T04:26:46.249Z,102.33
2022-10-18T04:29:12.894Z,102.86
2022-10-18T04:31:39.641Z,103.20
2022-10-18T04:34:06.315Z,103.05
2022-10-18T04:36:33.179Z,102.79
2022-10-18T04:38:59.917Z,103.00
2022-10-18T04:41:26.538Z,103.31
2022-10-18T04:43:53.152Z,103.40
2022-10-18T04:46:19.907Z,103.66
2022-10-18T04:48:46.544Z,103.60
2022-10-18T04:51:13.188Z,103.45
2022-10-18T04:53:39.903Z,103.71
2022-10-18T04:56:07.251Z,103.78
2022-10-18T04:58:33.948Z,104.00
2022-10-18T05:01:00.744Z,104.04
2022-10-18T05:03:27.561Z,103.66
2022-10-18T05:06:01.943Z,103.82
2022-10-18T05:08:30.591Z,103.85
2022-10-18T05:10:57.425Z,103.54
2022-10-18T05:13:24.371Z,103.87
2022-10-18T05:15:51.491Z,103.67
2022-10-18T05:18:18.274Z,104.16
2022-10-18T05:20:44.929Z,104.21
2022-10-18T05:23:11.727Z,104.28
2022-10-18T05:25:39.864Z,104.24
2022-10-18T05:28:15.714Z,104.37
2022-10-18T05:30:53.631Z,104.28
2022-10-18T05:33:20.351Z,104.08
2022-10-18T05:35:47.092Z,104.31
2022-10-18T05:38:13.748Z,104.10
2022-10-18T05:40:40.568Z,104.17
2022-10-18T05:43:07.350Z,104.15
2022-10-18T05:45:34.059Z,104.23
2022-10-18T05:48:00.756Z,104.03
2022-10-18T05:50:27.901Z,103.88
2022-10-18T05:53:06.834Z,103.98
2022-10-18T05:55:39.668Z,104.22
2022-10-18T05:58:06.751Z,104.36
2022-10-18T06:00:33.436Z,104.78
2022-10-18T06:03:00.594Z,105.02
2022-10-18T06:05:27.835Z,105.03
2022-10-18T06:07:55.999Z,105.33
2022-10-18T06:10:22.760Z,105.23
2022-10-18T06:12:49.665Z,105.03
2022-10-18T06:15:16.685Z,105.10
2022-10-18T06:17:43.387Z,104.86
2022-10-18T06:20:10.339Z,104.76
2022-10-18T06:22:37.014Z,104.72
2022-10-18T06:25:03.813Z,105.05
2022-10-18T06:27:31.957Z,105.03
2022-10-18T06:29:58.931Z,105.03
2022-10-18T06:32:25.690Z,105.11
2022-10-18T06:34:52.358Z,104.86
2022-10-18T06:37:19.143Z,104.68
2022-10-18T06:39:45.783Z,104.73
2022-10-18T06:42:12.458Z,104.64
2022-10-18T06:44:39.140Z,104.68
2022-10-18T06:47:07.795Z,104.48
2022-10-18T06:49:34.539Z,104.41
2022-10-18T06:52:01.190Z,104.55
2022-10-18T06:54:27.945Z,104.05
2022-10-18T06:56:58.276Z,104.06
2022-10-18T06:59:27.514Z,104.30
2022-10-18T07:01:57.434Z,104.47
2022-10-18T07:04:24.234Z,104.39
2022-10-18T07:06:53.824Z,104.18
2022-10-18T07:09:20.645Z,104.09
2022-10-18T07:11:47.288Z,104.09
2022-10-18T07:14:16.518Z,103.94
2022-10-18T07:16:43.329Z,104.01
2022-10-18T07:19:10.121Z,103.83
2022-10-18T07:21:36.788Z,103.86
2022-10-18T07:24:03.616Z,103.94
2022-10-18T07:26:33.315Z,103.79
2022-10-18T07:29:05.038Z,103.56
2022-10-18T07:31:31.994Z,103.10
2022-10-18T07:33:59.401Z,103.12
2022-10-18T07:36:26.204Z,103.14
2022-10-18T07:38:53.400Z,102.78
2022-10-18T07:41:21.074Z,102.91
2022-10-18T07:43:50.946Z,102.92
2022-10-18T07:46:19.299Z,102.61
2022-10-18T07:48:46.309Z,102.55
2022-10-18T07:51:13.743Z,102.28
2022-10-18T07:53:40.709Z,101.82
2022-10-18T07:56:16.259Z,101.90
2022-10-18T07:58:49.137Z,101.95
2022-10-18T08:01:15.987Z,101.60
2022-10-18T08:03:43.760Z,101.66
2022-10-18T08:06:12.911Z,101.45
2022-10-18T08:08:40.848Z,101.14
2022-10-18T08:11:17.200Z,101.34
2022-10-18T08:13:44.530Z,100.51
2022-10-18T08:16:13.728Z,100.61
2022-10-18T08:18:40.724Z,100.28
2022-10-18T08:21:10.096Z,100.03
2022-10-18T08:23:37.694Z,99.60
2022-10-18T08:26:07.342Z,99.31
2022-10-18T08:28:36.759Z,98.88
2022-10-18T08:31:05.933Z,98.58
2022-10-18T08:33:33.904Z,98.73
2022-10-18T08:36:03.414Z,98.74
2022-10-18T08:38:31.408Z,98.67
2022-10-18T08:41:35.620Z,98.43
2022-10-18T08:44:16.931Z,98.04
2022-10-18T08:46:52.976Z,98.09
2022-10-18T08:49:41.850Z,97.66
2022-10-18T08:52:33.981Z,96.98
2022-10-18T08:55:30.899Z,96.61
2022-10-18T08:57:58.395Z,95.81
2022-10-18T09:00:30.484Z,96.02
2022-10-18T09:03:00.178Z,95.84
2022-10-18T09:06:01.090Z,94.91
2022-10-18T09:08:46.162Z,95.07
2022-10-18T09:11:32.464Z,95.50
2022-10-18T09:14:20.999Z,95.37
2022-10-18T09:16:59.029Z,94.36
2022-10-18T09:19:56.382Z,94.11
2022-10-18T09:22:36.509Z,94.27
2022-10-18T09:25:31.772Z,93.41
2022-10-18T09:28:16.881Z,92.53
2022-10-18T09:31:09.937Z,92.72
2022-10-18T09:33:54.185Z,92.29
2022-10-18T09:36:27.883Z,92.02
2022-10-18T09:39:02.461Z,93.33
2022-10-18T09:41:41.007Z,92.09
2022-10-18T09:44:18.645Z,91.40
2022-10-18T09:46:50.155Z,90.98
2022-10-18T09:49:19.201Z,89.75
2022-10-18T09:51:48.553Z,88.96
2022-10-18T09:54:37.887Z,88.92
2022-10-18T09:57:17.655Z,88.31
2022-10-18T09:59:47.471Z,88.15
2022-10-18T10:02:21.054Z,88.65
2022-10-18T10:04:48.605Z,88.15
2022-10-18T10:07:35.051Z,88.00
2022-10-18T10:10:13.645Z,88.25
2022-10-18T10:12:41.624Z,88.60
2022-10-18T10:15:28.168Z,88.33
2022-10-18T10:18:02.035Z,89.09
2022-10-18T10:20:34.527Z,88.46
2022-10-18T10:23:07.812Z,88.46
2022-10-18T10:25:37.996Z,88.47
2022-10-18T10:28:16.263Z,87.68
2022-10-18T10:30:44.108Z,86.94
2022-10-18T10:33:38.584Z,86.38
2022-10-18T10:36:16.239Z,86.68
2022-10-18T10:38:42.871Z,86.96
2022-10-18T10:41:27.973Z,87.41
2022-10-18T10:43:54.756Z,86.97
2022-10-18T10:46:23.119Z,87.45
2022-10-18T10:49:21.635Z,87.44
2022-10-18T10:52:15.376Z,86.89
2022-10-18T10:54:51.594Z,87.32
2022-10-18T10:57:27.618Z,87.12
2022-10-18T10:59:57.066Z,87.39
2022-10-18T11:02:32.172Z,87.05
2022-10-18T11:05:25.735Z,87.35
2022-10-18T11:07:56.686Z,85.55
2022-10-18T11:10:27.625Z,86.03
2022-10-18T11:13:35.566Z,86.12
2022-10-18T11:16:22.345Z,83.76
2022-10-18T11:18:54.707Z,77.71
2022-10-18T11:21:29.111Z,72.25
2022-10-18T11:23:57.396Z,69.27
2022-10-18T11:26:41.019Z,65.09
2022-10-18T11:29:28.300Z,65.42
2022-10-18T11:32:22.525Z,64.66
2022-10-18T11:35:06.139Z,65.62
2022-10-18T11:37:38.420Z,66.21
2022-10-18T11:40:43.191Z,64.42
2022-10-18T11:44:00.471Z,69.80
2022-10-18T11:46:44.995Z,68.13
2022-10-18T11:49:54.426Z,67.63
2022-10-18T11:52:47.517Z,72.13
2022-10-18T11:55:33.305Z,71.67
2022-10-18T11:58:15.220Z,71.29
2022-10-18T12:00:50.370Z,72.48
2022-10-18T12:03:32.458Z,70.75
2022-10-18T12:06:04.460Z,70.64
2022-10-18T12:08:41.920Z,69.49
2022-10-18T12:11:15.821Z,71.69
2022-10-18T12:13:45.587Z,70.07
2022-10-18T12:16:12.658Z,69.29
2022-10-18T12:19:05.507Z,70.46
2022-10-18T12:21:51.999Z,69.65
2022-10-18T12:24:27.593Z,69.28
2022-10-18T12:26:58.972Z,69.32
2022-10-18T12:29:58.962Z,70.95
2022-10-18T12:32:32.033Z,71.18
2022-10-18T12:35:05.746Z,71.57
2022-10-18T12:37:45.403Z,71.90
2022-10-18T12:40:25.740Z,71.08
2022-10-18T12:42:53.306Z,71.72
2022-10-18T12:45:29.040Z,72.78
2022-10-18T12:48:00.458Z,72.90
2022-10-18T12:50:27.047Z,72.93
2022-10-18T12:53:05.046Z,72.52
2022-10-18T12:55:36.918Z,71.15
2022-10-18T12:58:23.943Z,70.90
2022-10-18T13:00:50.561Z,70.66
2022-10-18T13:03:17.873Z,70.67
2022-10-18T13:05:55.919Z,70.45
2022-10-18T13:08:29.199Z,70.50
2022-10-18T13:11:01.963Z,70.37
2022-10-18T13:13:40.667Z,69.74
2022-10-18T13:16:13.558Z,69.78
2022-10-18T13:19:15.631Z,70.31
2022-10-18T13:22:06.688Z,69.67
2022-10-18T13:24:39.823Z,69.08
2022-10-18T13:27:24.571Z,68.97
2022-10-18T13:30:13.730Z,69.07
2022-10-18T13:32:58.660Z,69.28
2022-10-18T13:35:55.043Z,68.76
2022-10-18T13:38:42.096Z,68.21
2022-10-18T13:41:12.416Z,67.21
2022-10-18T13:43:58.989Z,67.44
2022-10-18T13:46:46.683Z,66.27
2022-10-18T13:49:25.716Z,66.20
2022-10-18T13:52:21.588Z,66.65
2022-10-18T13:54:50.322Z,65.98
2022-10-18T13:57:42.127Z,65.71
2022-10-18T14:00:21.632Z,66.72
2022-10-18T14:03:51.815Z,66.51
2022-10-18T14:06:17.401Z,67.03
2022-10-18T14:08:59.385Z,68.76
2022-10-18T14:11:48.056Z,68.07
2022-10-18T14:14:31.665Z,67.31
2022-10-18T14:17:23.332Z,69.42
2022-10-18T14:20:14.861Z,69.35
2022-10-18T14:22:53.752Z,70.63
2022-10-18T14:25:32.727Z,70.27
2022-10-18T14:28:16.210Z,70.94
2022-10-18T14:30:58.113Z,70.58
2022-10-18T14:33:46.438Z,71.16
2022-10-18T14:36:26.579Z,70.03
2022-10-18T14:39:05.090Z,71.42
2022-10-18T14:41:38.403Z,72.23
2022-10-18T14:44:14.266Z,73.53
2022-10-18T14:46:46.730Z,72.88
2022-10-18T14:49:14.608Z,73.70
2022-10-18T14:51:44.170Z,73.86
2022-10-18T14:54:16.338Z,72.68
2022-10-18T14:56:44.027Z,73.54
2022-10-18T14:59:29.865Z,73.04
2022-10-18T15:01:59.412Z,73.43
2022-10-18T15:04:33.102Z,73.35
2022-10-18T15:07:13.420Z,74.37
2022-10-18T15:09:48.376Z,74.96
2022-10-18T15:12:18.153Z,75.50
2022-10-18T15:14:46.571Z,76.57
2022-10-18T15:17:23.149Z,76.25
2022-10-18T15:20:05.915Z,76.13
2022-10-18T15:22:33.790Z,76.59
2022-10-18T15:25:15.083Z,76.26
2022-10-18T15:27:52.141Z,77.08
2022-10-18T15:30:28.348Z,77.38
2022-10-18T15:32:59.283Z,78.49
2022-10-18T15:35:35.033Z,77.53
2022-10-18T15:38:17.508Z,77.23
2022-10-18T15:40:44.270Z,77.24
2022-10-18T15:43:23.314Z,77.65
2022-10-18T15:45:51.520Z,77.44
2022-10-18T15:48:24.445Z,78.05
2022-10-18T15:50:57.915Z,78.55
2022-10-18T15:53:31.477Z,77.52
2022-10-18T15:56:00.896Z,77.93
2022-10-18T15:58:43.204Z,78.18
2022-10-18T16:01:22.284Z,78.93
2022-10-18T16:03:51.646Z,80.22
2022-10-18T16:06:18.743Z,80.59
2022-10-18T16:08:49.645Z,80.87
2022-10-18T16:11:22.606Z,81.09
2022-10-18T16:13:54.007Z,80.24
2022-10-18T16:16:28.702Z,79.83
2022-10-18T16:18:56.752Z,79.79
2022-10-18T16:21:25.794Z,79.45
2022-10-18T16:23:53.430Z,79.48
2022-10-18T16:26:21.148Z,79.21
2022-10-18T16:28:48.417Z,79.43
2022-10-18T16:31:21.034Z,79.82
2022-10-18T16:33:48.577Z,80.07
2022-10-18T16:36:20.072Z,80.39
2022-10-18T16:38:47.147Z,80.80
2022-10-18T16:41:15.784Z,81.59
2022-10-18T16:43:44.501Z,80.99
2022-10-18T16:46:17.856Z,81.77
2022-10-18T16:48:45.657Z,81.25
2022-10-18T16:51:12.748Z,82.21
2022-10-18T16:53:39.708Z,82.86
2022-10-18T16:56:18.565Z,82.02
2022-10-18T16:58:46.272Z,81.99
2022-10-18T17:01:14.922Z,82.01
2022-10-18T17:03:42.171Z,82.81
2022-10-18T17:06:26.428Z,82.24
2022-10-18T17:08:54.348Z,81.57
2022-10-18T17:11:22.562Z,81.21
2022-10-18T17:13:49.709Z,81.68
2022-10-18T17:16:30.725Z,81.51
2022-10-18T17:19:00.212Z,81.97
2022-10-18T17:21:28.427Z,80.88
2022-10-18T17:23:55.511Z,80.65
2022-10-18T17:26:28.930Z,81.27
2022-10-18T17:28:59.301Z,81.01
2022-10-18T17:31:26.430Z,80.40
2022-10-18T17:33:56.171Z,81.15
2022-10-18T17:36:22.889Z,79.74
2022-10-18T17:38:51.437Z,76.31
2022-10-18T17:41:18.488Z,75.61
2022-10-18T17:43:45.367Z,76.18
2022-10-18T17:46:14.272Z,75.67
2022-10-18T17:48:42.131Z,75.10
2022-10-18T17:51:14.685Z,73.95
2022-10-18T17:53:41.646Z,75.46
2022-10-18T17:56:09.977Z,74.96
2022-10-18T17:58:36.796Z,74.42
2022-10-18T18:01:20.098Z,74.74
2022-10-18T18:03:50.313Z,73.51
2022-10-18T18:06:22.443Z,74.73
2022-10-18T18:08:49.989Z,72.04
2022-10-18T18:11:18.403Z,72.57
2022-10-18T18:13:45.373Z,71.18
2022-10-18T18:16:19.142Z,69.61
2022-10-18T18:18:47.254Z,68.73
2022-10-18T18:21:14.113Z,69.31
2022-10-18T18:23:41.893Z,68.80
2022-10-18T18:26:08.774Z,68.19
2022-10-18T18:28:36.359Z,69.23
2022-10-18T18:31:20.165Z,69.10
2022-10-18T18:33:46.911Z,69.09
2022-10-18T18:36:13.657Z,71.90
2022-10-18T18:38:45.069Z,69.95
2022-10-18T18:41:23.240Z,70.06
2022-10-18T18:44:02.350Z,70.24
2022-10-18T18:46:32.996Z,71.06
2022-10-18T18:49:03.033Z,70.79
2022-10-18T18:51:30.159Z,72.18
2022-10-18T18:53:56.970Z,73.50
2022-10-18T18:56:26.066Z,73.33
2022-10-18T18:58:53.957Z,74.18
2022-10-18T19:01:24.135Z,74.67
2022-10-18T19:03:52.889Z,75.36
2022-10-18T19:06:25.830Z,75.35
2022-10-18T19:09:03.113Z,76.06
2022-10-18T19:11:35.690Z,78.39
2022-10-18T19:14:03.391Z,78.80
2022-10-18T19:16:34.456Z,81.27
2022-10-18T19:19:05.304Z,82.69
2022-10-18T19:21:37.510Z,84.84
2022-10-18T19:24:05.575Z,85.28
2022-10-18T19:26:42.692Z,86.03
2022-10-18T19:29:13.622Z,87.70
2022-10-18T19:31:41.184Z,87.36
2022-10-18T19:34:10.693Z,86.42
2022-10-18T19:36:38.869Z,86.16
2022-10-18T19:39:07.968Z,85.40
2022-10-18T19:41:34.967Z,85.59
2022-10-18T19:44:02.083Z,86.23
2022-10-18T19:46:28.916Z,85.27
2022-10-18T19:48:55.688Z,85.19
2022-10-18T19:51:26.863Z,85.69
2022-10-18T19:53:56.638Z,85.14
2022-10-18T19:56:25.372Z,84.28
2022-10-18T19:58:52.626Z,83.85
2022-10-18T20:01:20.213Z,84.23
2022-10-18T20:03:47.819Z,84.80
2022-10-18T20:06:15.075Z,84.61
2022-10-18T20:11:13.016Z,84.10
2022-10-18T20:13:40.210Z,83.99
2022-10-18T20:16:08.847Z,82.87
2022-10-18T20:18:35.945Z,82.58
2022-10-18T20:21:07.323Z,83.87
2022-10-18T20:23:38.731Z,83.29
2022-10-18T20:26:08.801Z,82.09
2022-10-18T20:28:37.574Z,81.68
2022-10-18T20:31:09.292Z,82.21
2022-10-18T20:33:37.644Z,81.46
2022-10-18T20:36:24.852Z,78.91
2022-10-18T20:38:51.610Z,78.40
2022-10-18T20:41:27.258Z,77.96
2022-10-18T20:43:56.615Z,78.85
2022-10-18T20:46:23.980Z,78.21
2022-10-18T20:48:51.825Z,77.54
2022-10-18T20:51:19.073Z,78.15
2022-10-18T20:53:46.107Z,77.73
2022-10-18T20:56:15.145Z,78.77
2022-10-18T20:58:44.416Z,79.53
2022-10-18T21:01:13.141Z,79.65
2022-10-18T21:03:42.913Z,79.01
2022-10-18T21:06:22.498Z,79.83
2022-10-18T21:09:10.664Z,80.53
2022-10-18T21:11:40.277Z,80.26
2022-10-18T21:14:10.492Z,80.27
2022-10-18T21:16:37.327Z,80.67
2022-10-18T21:19:10.208Z,81.68
2022-10-18T21:21:37.257Z,82.54
2022-10-18T21:24:07.074Z,81.80
2022-10-18T21:26:35.604Z,81.47
2022-10-18T21:29:06.267Z,80.77
2022-10-18T21:31:36.256Z,82.05
2022-10-18T21:34:06.533Z,81.50
2022-10-18T21:36:35.960Z,81.74
2022-10-18T21:39:04.934Z,81.55
2022-10-18T21:41:32.419Z,80.61
2022-10-18T21:43:59.282Z,80.60
2022-10-18T21:46:27.125Z,80.49
2022-10-18T21:48:55.617Z,80.01
2022-10-18T21:51:25.966Z,82.01
2022-10-18T21:53:55.471Z,82.69
2022-10-18T21:56:27.987Z,79.91
2022-10-18T21:58:56.204Z,79.72
2022-10-18T22:01:34.846Z,80.53
2022-10-18T22:04:03.657Z,80.98
2022-10-18T22:06:32.922Z,81.09
2022-10-18T22:09:04.560Z,81.56
2022-10-18T22:11:33.240Z,81.54
2022-10-18T22:14:00.718Z,82.07
2022-10-18T22:16:28.018Z,82.29
2022-10-18T22:18:58.847Z,82.49
2022-10-18T22:21:25.951Z,82.49
2022-10-18T22:23:54.394Z,83.00
2022-10-18T22:26:24.169Z,83.19
2022-10-18T22:29:08.547Z,85.51
2022-10-18T22:31:36.974Z,87.12
2022-10-18T22:34:10.294Z,89.16
2022-10-18T22:36:37.160Z,90.20
2022-10-18T22:39:08.555Z,89.94
2022-10-18T22:41:35.704Z,90.81
2022-10-18T22:44:03.855Z,91.14
2022-10-18T22:46:32.317Z,91.42
2022-10-18T22:48:59.110Z,91.61
2022-10-18T22:51:26.203Z,91.57
2022-10-18T22:53:52.906Z,90.95
2022-10-18T22:56:21.325Z,91.29
2022-10-18T22:58:48.495Z,91.35
2022-10-18T23:01:21.051Z,91.29
2022-10-18T23:03:55.450Z,91.04
2022-10-18T23:06:26.845Z,90.82
2022-10-18T23:08:55.517Z,90.61
2022-10-18T23:11:22.596Z,90.79
2022-10-18T23:13:49.763Z,90.50
2022-10-18T23:16:19.738Z,90.98
2022-10-18T23:18:57.746Z,89.63
2022-10-18T23:21:27.991Z,90.11
2022-10-18T23:23:55.744Z,90.22
2022-10-18T23:26:25.111Z,89.50
2022-10-18T23:28:53.047Z,90.42
2022-10-18T23:31:22.834Z,90.18
2022-10-18T23:33:52.243Z,89.96
2022-10-18T23:36:19.540Z,89.54
2022-10-18T23:38:46.200Z,89.74
2022-10-18T23:41:14.219Z,89.45
2022-10-18T23:43:41.875Z,89.76
2022-10-18T23:46:09.371Z,89.13
2022-10-18T23:48:36.230Z,89.63
2022-10-18T23:51:03.550Z,90.15
2022-10-18T23:53:30.496Z,89.73
2022-10-18T23:56:03.080Z,90.53
2022-10-18T23:58:31.907Z,90.87
